createdAt,value
2023-05-06T00:02:04.570Z,7.10
2023-05-06T00:04:33.676Z,7.00
2023-05-06T00:07:02.656Z,6.90
2023-05-06T00:09:32.880Z,6.90
2023-05-06T00:12:01.499Z,6.90
2023-05-06T00:14:30.073Z,6.80
2023-05-06T00:16:58.712Z,6.80
2023-05-06T00:19:27.819Z,6.70
2023-05-06T00:21:57.519Z,6.70
2023-05-06T00:24:26.203Z,6.70
2023-05-06T00:26:56.983Z,6.70
2023-05-06T00:29:25.652Z,6.50
2023-05-06T00:31:54.416Z,6.50
2023-05-06T00:34:22.966Z,6.50
2023-05-06T00:36:51.485Z,6.50
2023-05-06T00:39:20.031Z,6.50
2023-05-06T00:41:48.517Z,6.30
2023-05-06T00:44:18.672Z,6.30
2023-05-06T00:46:47.352Z,6.20
2023-05-06T00:49:16.002Z,6.20
2023-05-06T00:51:44.609Z,6.20
2023-05-06T00:54:13.433Z,6.10
2023-05-06T00:56:43.308Z,6.00
2023-05-06T00:59:11.920Z,5.90
2023-05-06T01:01:42.412Z,5.90
2023-05-06T01:04:11.162Z,5.80
2023-05-06T01:06:45.690Z,5.90
2023-05-06T01:09:22.477Z,5.70
2023-05-06T01:11:55.072Z,5.70
2023-05-06T01:14:28.497Z,5.30
2023-05-06T01:17:05.200Z,5.50
2023-05-06T01:19:43.176Z,5.60
2023-05-06T01:22:12.904Z,5.60
2023-05-06T01:24:44.417Z,5.60
2023-05-06T01:27:14.207Z,5.40
2023-05-06T01:29:44.657Z,5.40
2023-05-06T01:32:42.014Z,5.30
2023-05-06T01:35:19.937Z,5.20
2023-05-06T01:37:54.045Z,5.10
2023-05-06T01:40:27.566Z,5.10
2023-05-06T01:42:58.040Z,5.10
2023-05-06T01:45:30.518Z,5.10
2023-05-06T01:47:59.950Z,5.00
2023-05-06T01:50:29.672Z,5.00
2023-05-06T01:53:00.378Z,5.00
2023-05-06T01:55:30.737Z,5.00
2023-05-06T01:57:59.825Z,4.90
2023-05-06T02:00:28.871Z,4.80
2023-05-06T02:02:57.655Z,4.90
2023-05-06T02:05:26.621Z,4.80
2023-05-06T02:07:55.719Z,4.80
2023-05-06T02:10:24.299Z,4.90
2023-05-06T02:12:54.213Z,4.90
2023-05-06T02:15:22.868Z,4.90
2023-05-06T02:17:51.468Z,4.80
2023-05-06T02:20:20.063Z,4.70
2023-05-06T02:22:48.536Z,4.70
2023-05-06T02:25:17.207Z,4.80
2023-05-06T02:27:46.078Z,4.80
2023-05-06T02:30:16.194Z,4.70
2023-05-06T02:32:44.777Z,4.80
2023-05-06T02:35:13.618Z,4.70
2023-05-06T02:37:42.183Z,4.70
2023-05-06T02:40:11.461Z,4.70
2023-05-06T02:42:40.123Z,4.80
2023-05-06T02:45:10.664Z,4.70
2023-05-06T02:47:41.168Z,4.70
2023-05-06T02:50:10.348Z,4.80
2023-05-06T02:52:38.987Z,4.80
2023-05-06T02:55:08.612Z,4.90
2023-05-06T02:57:37.473Z,4.90
2023-05-06T03:00:07.612Z,5.00
2023-05-06T03:02:36.259Z,5.00
2023-05-06T03:05:07.058Z,5.00
2023-05-06T03:07:37.177Z,5.10
2023-05-06T03:10:06.468Z,5.10
2023-05-06T03:12:35.080Z,5.10
2023-05-06T03:15:03.804Z,5.10
2023-05-06T03:17:32.438Z,5.20
2023-05-06T03:20:01.023Z,5.30
2023-05-06T03:22:30.988Z,5.30
2023-05-06T03:24:59.642Z,5.40
2023-05-06T03:27:28.328Z,5.50
2023-05-06T03:29:56.908Z,5.60
2023-05-06T03:32:25.636Z,5.70
2023-05-06T03:34:54.370Z,5.70
2023-05-06T03:37:23.068Z,5.70
2023-05-06T03:39:53.036Z,5.80
2023-05-06T03:42:22.182Z,5.80
2023-05-06T03:44:50.959Z,6.00
2023-05-06T03:47:19.751Z,6.00
2023-05-06T03:49:48.286Z,6.00
2023-05-06T03:52:17.010Z,6.10
2023-05-06T03:54:45.520Z,6.20
2023-05-06T03:57:15.567Z,6.30
2023-05-06T03:59:44.126Z,6.40
2023-05-06T04:02:12.747Z,6.40
2023-05-06T04:04:41.431Z,6.50
2023-05-06T04:07:10.018Z,6.60
2023-05-06T04:09:38.618Z,6.60
2023-05-06T04:12:07.480Z,6.60
2023-05-06T04:14:37.779Z,6.70
2023-05-06T04:17:06.394Z,6.70
2023-05-06T04:19:34.999Z,6.70
2023-05-06T04:22:03.617Z,6.70
2023-05-06T04:24:32.708Z,6.80
2023-05-06T04:27:02.735Z,6.70
2023-05-06T04:29:31.303Z,6.80
2023-05-06T04:32:01.466Z,6.80
2023-05-06T04:34:30.226Z,6.90
2023-05-06T04:36:59.532Z,7.00
2023-05-06T04:39:28.113Z,7.00
2023-05-06T04:41:56.700Z,7.00
2023-05-06T04:44:25.314Z,7.10
2023-05-06T04:46:53.869Z,7.10
2023-05-06T04:49:24.002Z,7.10
2023-05-06T04:51:52.535Z,7.10
2023-05-06T04:54:21.141Z,7.20
2023-05-06T04:56:49.683Z,7.30
2023-05-06T04:59:18.339Z,7.40
2023-05-06T05:01:47.177Z,7.50
2023-05-06T05:04:18.373Z,7.60
2023-05-06T05:06:48.589Z,7.70
2023-05-06T05:09:17.214Z,7.80
2023-05-06T05:11:45.999Z,7.90
2023-05-06T05:14:14.545Z,7.90
2023-05-06T05:16:43.263Z,8.00
2023-05-06T05:19:11.902Z,8.00
2023-05-06T05:21:40.682Z,8.10
2023-05-06T05:24:10.750Z,8.20
2023-05-06T05:26:39.386Z,8.30
2023-05-06T05:29:08.210Z,8.40
2023-05-06T05:31:36.918Z,8.50
2023-05-06T05:34:05.669Z,8.60
2023-05-06T05:36:34.325Z,8.70
2023-05-06T05:39:03.023Z,8.80
2023-05-06T05:41:33.040Z,9.00
2023-05-06T05:44:01.632Z,9.20
2023-05-06T05:46:30.181Z,9.20
2023-05-06T05:48:58.808Z,9.40
2023-05-06T05:51:27.365Z,9.50
2023-05-06T05:53:56.065Z,9.40
2023-05-06T05:56:25.067Z,9.40
2023-05-06T05:58:55.103Z,9.30
2023-05-06T06:01:23.651Z,9.40
2023-05-06T06:03:52.571Z,9.40
2023-05-06T06:06:21.368Z,9.50
2023-05-06T06:08:49.947Z,9.60
2023-05-06T06:11:18.510Z,9.70
2023-05-06T06:13:47.148Z,9.90
2023-05-06T06:16:17.303Z,10.00
2023-05-06T06:18:45.930Z,10.20
2023-05-06T06:21:14.622Z,10.30
2023-05-06T06:23:43.206Z,10.50
2023-05-06T06:26:12.436Z,10.70
2023-05-06T06:28:42.091Z,10.80
2023-05-06T06:31:12.710Z,11.10
2023-05-06T06:33:42.806Z,11.30
2023-05-06T06:36:11.873Z,11.50
2023-05-06T06:38:41.569Z,11.70
2023-05-06T06:41:11.658Z,12.00
2023-05-06T06:43:40.267Z,12.20
2023-05-06T06:46:08.860Z,12.20
2023-05-06T06:48:37.399Z,12.10
2023-05-06T06:51:07.592Z,12.10
2023-05-06T06:53:36.151Z,12.10
2023-05-06T06:56:04.847Z,12.20
2023-05-06T06:58:35.137Z,12.30
2023-05-06T07:01:03.856Z,12.40
2023-05-06T07:03:32.698Z,12.50
2023-05-06T07:06:01.513Z,12.60
2023-05-06T07:08:31.559Z,12.80
2023-05-06T07:11:00.176Z,13.00
2023-05-06T07:13:29.066Z,13.20
2023-05-06T07:16:00.138Z,13.30
2023-05-06T07:18:29.134Z,13.50
2023-05-06T07:20:57.811Z,13.70
2023-05-06T07:23:26.685Z,13.80
2023-05-06T07:25:56.726Z,14.10
2023-05-06T07:28:25.304Z,14.20
2023-05-06T07:30:54.462Z,14.20
2023-05-06T07:33:23.119Z,14.10
2023-05-06T07:35:51.953Z,14.10
2023-05-06T07:38:22.908Z,14.20
2023-05-06T07:40:51.807Z,14.20
2023-05-06T07:43:23.031Z,14.20
2023-05-06T07:45:51.688Z,14.20
2023-05-06T07:48:20.543Z,14.30
2023-05-06T07:50:49.350Z,14.40
2023-05-06T07:53:17.918Z,14.30
2023-05-06T07:55:46.542Z,14.30
2023-05-06T07:58:15.120Z,14.40
2023-05-06T08:00:45.202Z,14.40
2023-05-06T08:03:14.080Z,14.40
2023-05-06T08:05:42.865Z,14.50
2023-05-06T08:08:11.756Z,14.60
2023-05-06T08:10:40.434Z,14.60
2023-05-06T08:13:09.110Z,14.70
2023-05-06T08:15:37.773Z,14.70
2023-05-06T08:18:20.945Z,14.60
2023-05-06T08:20:50.062Z,14.60
2023-05-06T08:23:18.720Z,14.70
2023-05-06T08:25:47.491Z,14.80
2023-05-06T08:28:16.062Z,14.90
2023-05-06T08:30:47.742Z,15.00
2023-05-06T08:33:17.718Z,15.20
2023-05-06T08:35:46.857Z,15.30
2023-05-06T08:38:15.700Z,15.20
2023-05-06T08:40:45.496Z,14.90
2023-05-06T08:43:15.206Z,14.70
2023-05-06T08:45:44.086Z,14.50
2023-05-06T08:48:13.076Z,14.40
2023-05-06T08:50:45.464Z,14.20
2023-05-06T08:53:14.575Z,14.20
2023-05-06T08:55:44.420Z,14.20
2023-05-06T08:58:17.039Z,14.20
2023-05-06T09:00:48.702Z,14.10
2023-05-06T09:03:17.574Z,14.00
2023-05-06T09:05:47.688Z,14.00
2023-05-06T09:08:16.526Z,14.00
2023-05-06T09:10:46.386Z,13.90
2023-05-06T09:13:16.145Z,13.90
2023-05-06T09:15:47.421Z,14.00
2023-05-06T09:18:16.690Z,14.00
2023-05-06T09:20:48.440Z,14.10
2023-05-06T09:23:18.547Z,14.10
2023-05-06T09:25:49.938Z,14.10
2023-05-06T09:28:18.455Z,14.10
2023-05-06T09:30:48.032Z,14.00
2023-05-06T09:33:16.946Z,14.00
2023-05-06T09:35:45.919Z,14.00
2023-05-06T09:38:16.679Z,14.10
2023-05-06T09:40:45.223Z,14.10
2023-05-06T09:43:16.369Z,14.30
2023-05-06T09:45:46.456Z,14.50
2023-05-06T09:48:16.960Z,14.60
2023-05-06T09:50:45.958Z,14.50
2023-05-06T09:53:18.164Z,14.60
2023-05-06T09:55:47.297Z,14.70
2023-05-06T09:58:17.858Z,14.80
2023-05-06T10:00:46.944Z,14.80
2023-05-06T10:03:16.933Z,14.80
2023-05-06T10:05:46.351Z,15.00
2023-05-06T10:08:19.700Z,15.00
2023-05-06T10:10:50.336Z,15.10
2023-05-06T10:13:19.166Z,15.10
2023-05-06T10:15:49.530Z,15.20
2023-05-06T10:18:19.679Z,15.20
2023-05-06T10:20:49.365Z,15.20
2023-05-06T10:23:26.994Z,15.10
2023-05-06T10:25:58.561Z,15.10
2023-05-06T10:28:31.601Z,15.10
2023-05-06T10:31:01.119Z,14.90
2023-05-06T10:33:31.007Z,14.90
2023-05-06T10:36:10.250Z,14.80
2023-05-06T10:38:43.633Z,14.70
2023-05-06T10:41:13.063Z,14.60
2023-05-06T10:43:43.169Z,14.50
2023-05-06T10:46:13.428Z,14.40
2023-05-06T10:49:17.478Z,14.30
2023-05-06T10:51:46.045Z,14.20
2023-05-06T10:54:25.670Z,14.10
2023-05-06T10:57:10.471Z,14.00
2023-05-06T10:59:39.158Z,14.00
2023-05-06T11:02:11.418Z,14.00
2023-05-06T11:04:41.511Z,13.90
2023-05-06T11:07:12.534Z,13.80
2023-05-06T11:10:08.345Z,13.70
2023-05-06T11:12:47.616Z,13.70
2023-05-06T11:15:25.791Z,13.60
2023-05-06T11:17:56.349Z,13.50
2023-05-06T11:20:25.989Z,13.50
2023-05-06T11:22:56.190Z,13.40
2023-05-06T11:25:47.279Z,13.50
2023-05-06T11:28:17.057Z,13.50
2023-05-06T11:30:54.591Z,13.50
2023-05-06T11:33:25.584Z,13.40
2023-05-06T11:35:54.843Z,13.40
2023-05-06T11:38:23.463Z,13.30
2023-05-06T11:40:53.786Z,13.30
2023-05-06T11:43:22.373Z,13.30
2023-05-06T11:45:52.315Z,13.30
2023-05-06T11:48:20.993Z,13.30
2023-05-06T11:50:51.066Z,13.30
2023-05-06T11:53:21.937Z,13.30
2023-05-06T11:55:55.112Z,13.20
2023-05-06T11:58:27.735Z,13.20
2023-05-06T12:00:58.025Z,13.20
2023-05-06T12:03:28.914Z,13.20
2023-05-06T12:05:58.156Z,13.20
2023-05-06T12:08:28.818Z,13.20
2023-05-06T12:11:01.828Z,13.20
2023-05-06T12:13:31.436Z,13.10
2023-05-06T12:16:01.713Z,13.00
2023-05-06T12:18:30.578Z,13.10
2023-05-06T12:21:02.682Z,13.10
2023-05-06T12:23:31.471Z,13.10
2023-05-06T12:26:06.735Z,13.00
2023-05-06T12:28:38.719Z,13.00
2023-05-06T12:31:20.619Z,13.10
2023-05-06T12:33:50.895Z,13.10
2023-05-06T12:36:20.343Z,13.00
2023-05-06T12:38:53.200Z,13.00
2023-05-06T12:41:23.800Z,12.90
2023-05-06T12:43:53.262Z,12.90
2023-05-06T12:46:22.011Z,12.80
2023-05-06T12:49:04.441Z,12.70
2023-05-06T12:51:32.988Z,12.60
2023-05-06T12:54:01.550Z,12.50
2023-05-06T12:56:31.511Z,12.40
2023-05-06T12:59:01.409Z,12.30
2023-05-06T13:01:30.208Z,12.20
2023-05-06T13:03:58.883Z,12.10
2023-05-06T13:06:27.455Z,12.10
2023-05-06T13:08:55.942Z,12.00
2023-05-06T13:11:25.915Z,12.00
2023-05-06T13:13:56.206Z,11.90
2023-05-06T13:16:24.982Z,11.80
2023-05-06T13:18:53.599Z,11.70
2023-05-06T13:21:22.344Z,11.60
2023-05-06T13:23:51.040Z,11.40
2023-05-06T13:26:19.613Z,11.30
2023-05-06T13:28:48.790Z,11.20
2023-05-06T13:31:18.891Z,11.00
2023-05-06T13:33:47.983Z,10.80
2023-05-06T13:36:16.876Z,10.80
2023-05-06T13:38:45.689Z,10.60
2023-05-06T13:41:14.297Z,10.50
2023-05-06T13:43:42.879Z,10.40
2023-05-06T13:46:11.517Z,10.30
2023-05-06T13:48:42.176Z,10.30
2023-05-06T13:51:10.760Z,10.20
2023-05-06T13:53:39.672Z,10.10
2023-05-06T13:56:08.596Z,10.00
2023-05-06T13:58:37.307Z,9.90
2023-05-06T14:01:06.338Z,9.90
2023-05-06T14:03:34.952Z,9.80
2023-05-06T14:06:05.243Z,9.70
2023-05-06T14:08:34.326Z,9.50
2023-05-06T14:11:03.289Z,9.50
2023-05-06T14:13:33.803Z,9.30
2023-05-06T14:16:02.571Z,9.20
2023-05-06T14:18:32.185Z,9.10
2023-05-06T14:21:01.126Z,9.10
2023-05-06T14:23:31.291Z,9.00
2023-05-06T14:26:00.264Z,8.90
2023-05-06T14:28:28.876Z,8.80
2023-05-06T14:30:59.957Z,8.70
2023-05-06T14:33:28.775Z,8.50
2023-05-06T14:35:58.494Z,8.40
2023-05-06T14:38:27.077Z,8.40
2023-05-06T14:40:59.323Z,8.30
2023-05-06T14:43:28.259Z,8.30
2023-05-06T14:45:56.999Z,8.20
2023-05-06T14:48:26.470Z,8.20
2023-05-06T14:50:55.194Z,8.20
2023-05-06T14:53:23.966Z,8.20
2023-05-06T14:55:52.855Z,8.10
2023-05-06T14:58:23.060Z,8.00
2023-05-06T15:00:52.041Z,8.00
2023-05-06T15:03:21.216Z,8.00
2023-05-06T15:05:50.859Z,7.90
2023-05-06T15:08:21.584Z,7.90
2023-05-06T15:10:50.774Z,7.80
2023-05-06T15:13:19.668Z,7.90
2023-05-06T15:15:50.067Z,7.90
2023-05-06T15:18:18.777Z,7.90
2023-05-06T15:20:49.735Z,7.90
2023-05-06T15:23:18.735Z,7.80
2023-05-06T15:25:47.368Z,7.90
2023-05-06T15:28:15.954Z,7.90
2023-05-06T15:30:44.592Z,7.90
2023-05-06T15:33:14.989Z,7.90
2023-05-06T15:35:43.584Z,7.90
2023-05-06T15:38:13.242Z,8.00
2023-05-06T15:40:42.747Z,8.00
2023-05-06T15:43:17.737Z,8.00
2023-05-06T15:45:51.278Z,8.00
2023-05-06T15:48:21.331Z,7.90
2023-05-06T15:50:49.978Z,7.90
2023-05-06T15:53:20.663Z,8.00
2023-05-06T15:55:57.202Z,8.00
2023-05-06T15:58:30.678Z,8.00
2023-05-06T16:00:59.230Z,8.00
2023-05-06T16:03:29.423Z,7.90
2023-05-06T16:06:00.806Z,7.90
2023-05-06T16:08:29.451Z,7.80
2023-05-06T16:10:58.266Z,7.80
2023-05-06T16:13:27.287Z,7.80
2023-05-06T16:15:55.913Z,7.80
2023-05-06T16:18:24.545Z,7.70
2023-05-06T16:20:54.673Z,7.70
2023-05-06T16:23:23.209Z,7.70
2023-05-06T16:25:52.147Z,7.70
2023-05-06T16:28:20.728Z,7.60
2023-05-06T16:30:49.360Z,7.60
2023-05-06T16:33:17.921Z,7.60
2023-05-06T16:35:47.100Z,7.60
2023-05-06T16:38:17.113Z,7.60
2023-05-06T16:40:51.178Z,7.60
2023-05-06T16:43:20.002Z,7.60
2023-05-06T16:45:48.651Z,7.50
2023-05-06T16:48:17.929Z,7.60
2023-05-06T16:50:46.583Z,7.60
2023-05-06T16:53:17.578Z,7.50
2023-05-06T16:55:48.955Z,7.60
2023-05-06T16:58:17.610Z,7.60
2023-05-06T17:00:46.153Z,7.50
2023-05-06T17:03:15.006Z,7.50
2023-05-06T17:05:43.751Z,7.50
2023-05-06T17:08:12.688Z,7.50
2023-05-06T17:10:43.698Z,7.50
2023-05-06T17:13:12.451Z,7.50
2023-05-06T17:15:41.014Z,7.50
2023-05-06T17:18:09.901Z,7.50
2023-05-06T17:20:51.330Z,7.50
2023-05-06T17:23:23.350Z,7.50
2023-05-06T17:25:53.453Z,7.50
2023-05-06T17:28:22.085Z,7.60
2023-05-06T17:30:50.719Z,7.60
2023-05-06T17:33:20.598Z,7.50
2023-05-06T17:35:49.489Z,7.50
2023-05-06T17:38:18.175Z,7.50
2023-05-06T17:40:46.764Z,7.50
2023-05-06T17:43:16.772Z,7.50
2023-05-06T17:45:45.321Z,7.50
2023-05-06T17:48:13.926Z,7.50
2023-05-06T17:50:42.484Z,7.40
2023-05-06T17:53:11.101Z,7.50
2023-05-06T17:55:40.048Z,7.50
2023-05-06T17:58:08.590Z,7.40
2023-05-06T18:00:38.706Z,7.40
2023-05-06T18:03:07.362Z,7.40
2023-05-06T18:05:35.986Z,7.40
2023-05-06T18:08:05.057Z,7.30
2023-05-06T18:10:33.545Z,7.30
2023-05-06T18:13:02.488Z,7.30
2023-05-06T18:15:31.178Z,7.30
2023-05-06T18:18:01.576Z,7.30
2023-05-06T18:20:33.511Z,7.30
2023-05-06T18:23:02.346Z,7.20
2023-05-06T18:25:31.456Z,7.30
2023-05-06T18:28:00.080Z,7.30
2023-05-06T18:30:28.928Z,7.30
2023-05-06T18:32:58.188Z,7.30
2023-05-06T18:35:28.589Z,7.20
2023-05-06T18:37:57.172Z,7.20
2023-05-06T18:40:25.847Z,7.20
2023-05-06T18:42:56.744Z,7.10
2023-05-06T18:45:25.363Z,7.20
2023-05-06T18:47:54.377Z,7.20
2023-05-06T18:50:24.016Z,7.20
2023-05-06T18:52:55.339Z,7.20
2023-05-06T18:55:24.102Z,7.10
2023-05-06T18:57:52.741Z,7.20
2023-05-06T19:00:22.633Z,7.20
2023-05-06T19:02:51.290Z,7.10
2023-05-06T19:05:20.841Z,7.10
2023-05-06T19:07:49.383Z,7.10
2023-05-06T19:10:19.592Z,7.10
2023-05-06T19:12:48.161Z,7.10
2023-05-06T19:15:19.172Z,7.10
2023-05-06T19:17:47.728Z,7.10
2023-05-06T19:20:16.500Z,7.10
2023-05-06T19:22:45.109Z,7.00
2023-05-06T19:25:13.866Z,7.00
2023-05-06T19:27:44.222Z,7.00
2023-05-06T19:30:15.670Z,7.00
2023-05-06T19:32:44.701Z,7.00
2023-05-06T19:35:13.789Z,7.00
2023-05-06T19:37:42.554Z,7.00
2023-05-06T19:40:15.264Z,7.00
2023-05-06T19:42:46.433Z,7.00
2023-05-06T19:45:17.530Z,7.00
2023-05-06T19:47:47.762Z,7.00
2023-05-06T19:50:16.768Z,7.00
2023-05-06T19:52:51.377Z,7.00
2023-05-06T19:55:20.832Z,7.00
2023-05-06T19:57:51.619Z,7.00
2023-05-06T20:00:22.206Z,7.00
2023-05-06T20:02:50.960Z,7.00
2023-05-06T20:05:24.154Z,7.00
2023-05-06T20:07:53.351Z,7.00
2023-05-06T20:10:22.038Z,7.00
2023-05-06T20:12:52.019Z,6.90
2023-05-06T20:15:20.791Z,7.00
2023-05-06T20:17:49.535Z,7.00
2023-05-06T20:20:34.531Z,7.00
2023-05-06T20:23:03.485Z,7.00
2023-05-06T20:25:32.372Z,6.90
2023-05-06T20:28:03.709Z,7.00
2023-05-06T20:30:32.440Z,7.00
2023-05-06T20:33:01.326Z,6.90
2023-05-06T20:35:30.065Z,6.90
2023-05-06T20:37:58.694Z,7.00
2023-05-06T20:40:27.281Z,6.90
2023-05-06T20:42:56.392Z,6.90
2023-05-06T20:45:27.506Z,6.90
2023-05-06T20:47:56.253Z,6.90
2023-05-06T20:50:24.939Z,6.90
2023-05-06T20:52:54.616Z,7.00
2023-05-06T20:55:24.844Z,6.90
2023-05-06T20:57:55.523Z,6.90
2023-05-06T21:00:26.059Z,6.90
2023-05-06T21:02:55.087Z,6.90
2023-05-06T21:05:23.990Z,6.80
2023-05-06T21:07:52.592Z,6.80
2023-05-06T21:10:21.218Z,7.00
2023-05-06T21:12:49.887Z,7.00
2023-05-06T21:15:18.652Z,6.90
2023-05-06T21:17:48.798Z,6.90
2023-05-06T21:20:17.847Z,6.90
2023-05-06T21:22:46.873Z,6.90
2023-05-06T21:25:15.681Z,6.90
2023-05-06T21:27:44.357Z,6.80
2023-05-06T21:30:13.689Z,6.80
2023-05-06T21:32:42.371Z,6.70
2023-05-06T21:35:12.976Z,6.70
2023-05-06T21:37:41.734Z,6.70
2023-05-06T21:40:11.764Z,6.70
2023-05-06T21:42:40.846Z,6.70
2023-05-06T21:45:11.510Z,6.70
2023-05-06T21:47:40.982Z,6.70
2023-05-06T21:50:24.633Z,6.80
2023-05-06T21:52:53.202Z,6.70
2023-05-06T21:55:21.960Z,6.70
2023-05-06T21:57:50.782Z,6.50
2023-05-06T22:00:19.977Z,6.60
2023-05-06T22:02:48.851Z,6.60
2023-05-06T22:05:17.956Z,6.60
2023-05-06T22:07:52.762Z,6.60
2023-05-06T22:10:21.333Z,6.60
2023-05-06T22:12:52.724Z,6.50
2023-05-06T22:15:21.521Z,6.50
2023-05-06T22:17:50.165Z,6.50
2023-05-06T22:20:19.252Z,6.50
2023-05-06T22:22:51.598Z,6.50
2023-05-06T22:25:20.357Z,6.50
2023-05-06T22:27:49.046Z,6.50
2023-05-06T22:30:17.872Z,6.50
2023-05-06T22:32:46.736Z,6.50
2023-05-06T22:35:16.186Z,6.50
2023-05-06T22:37:45.579Z,6.50
2023-05-06T22:40:16.380Z,6.40
2023-05-06T22:42:45.106Z,6.40
2023-05-06T22:45:15.707Z,6.40
2023-05-06T22:47:52.148Z,6.40
2023-05-06T22:50:21.000Z,6.40
2023-05-06T22:52:49.943Z,6.40
2023-05-06T22:55:20.175Z,6.30
2023-05-06T22:57:50.248Z,6.40
2023-05-06T23:00:19.375Z,6.30
2023-05-06T23:02:47.960Z,6.40
2023-05-06T23:05:16.676Z,6.30
2023-05-06T23:07:45.464Z,6.30
2023-05-06T23:10:14.101Z,6.30
2023-05-06T23:12:44.056Z,6.30
2023-05-06T23:15:13.047Z,6.30
2023-05-06T23:17:41.957Z,6.30
2023-05-06T23:20:12.952Z,6.20
2023-05-06T23:22:41.698Z,6.20
2023-05-06T23:25:11.978Z,6.20
2023-05-06T23:27:41.106Z,6.20
2023-05-06T23:30:12.664Z,6.20
2023-05-06T23:32:42.382Z,6.20
2023-05-06T23:35:11.579Z,6.20
2023-05-06T23:37:40.345Z,6.20
2023-05-06T23:40:12.753Z,6.20
2023-05-06T23:42:41.664Z,6.20
2023-05-06T23:45:12.450Z,6.20
2023-05-06T23:47:41.252Z,6.20
2023-05-06T23:50:10.640Z,6.20
2023-05-06T23:52:39.541Z,6.20
2023-05-06T23:55:09.372Z,6.20
2023-05-06T23:57:38.285Z,6.20
